Buckingham, Canada
Current Conditions -  °F | °C
As of 3:00 AM on Friday 31 Oct 2014 (Local Time) from CYOW Reporting Station
Overcast Overcast  
Wind Chill: 34°   Ceiling: 12000
Heat Index: 34°   Visibility: 15mi
Dew Point: 27°   Wind: 3mph
Humidity: 75%   Direction: 330°NNW
Pressure: 30.04"   Gusts: NA
Location:  45.58°N, 75.42°W
Report Text: CYOW 310700Z 33003KT 15SM BKN120 OVC230 01/M03 A3004 RMK AC5CI3 SLP176
Loading
Personal Weather Stations






























Interactive Weather Map
Tropical Storm Tracking
New forecast layout! Learn more

10-Day Weather Forecast

Advertisements
Track Severe Weather on mobile